31.08.2026 21:05:00
| Date Time | Out Temp °C |
App Temp °C |
Dew Point °C |
Humidity % |
Wind | Pressure hPa |
Rain (since 12 a.m.) mm |
|||
|---|---|---|---|---|---|---|---|---|---|---|
| Direction compass |
Speed km/h |
Gust km/h |
Direction ° |
|||||||
| 31-08-2026 21:05 | 19.9 | 19.4 | 11.5 | 59 | W | 5 | 17 | 269 | 1016.8 | 7.2 |
| Date | Out Temp °C |
App Temp °C |
Dew Point °C |
Humidity % |
Wind | Pressure hPa |
Rain (since 12 a.m.) mm |
|||
|---|---|---|---|---|---|---|---|---|---|---|
| Direction compass |
Speed km/h |
Gust km/h |
Direction ° |
|||||||
| 2026-08-31 | 11.9 (23.6) | 12.2 (23.4) | 10.9 (15.9) | 47 (94) | WSW | 0 (9) | 0 (26) | 252 | 1013.6 (1016.8) | 7.2 |
| Date Time | Out Temp °C |
App Temp °C |
Dew Point °C |
Humidity % |
Wind | Pressure hPa |
Rain (since 12 a.m.) mm |
|||
|---|---|---|---|---|---|---|---|---|---|---|
| Direction compass |
Speed km/h |
Gust km/h |
Direction ° |
|||||||
| 31-08-2026 21:00 | 19.9 | 19.3 | 11.4 | 58 | W | 5 | 17 | 267 | 1016.7 | 7.2 |
| 31-08-2026 20:30 | 19.5 | 19.8 | 11.5 | 60 | WSW | 1 | 5 | 258 | 1015.9 | 7.2 |
| 31-08-2026 20:00 | 19.9 | 20.3 | 11.5 | 58 | WSW | 0 | 2 | 251 | 1015.6 | 7.2 |
| 31-08-2026 19:30 | 20.8 | 21.3 | 11.8 | 56 | WSW | 0 | 5 | 242 | 1015.2 | 7.2 |
| 31-08-2026 19:00 | 22.3 | 22.4 | 11.6 | 51 | W | 2 | 9 | 277 | 1014.7 | 7.2 |
| 31-08-2026 18:30 | 23.2 | 22.9 | 11.9 | 49 | W | 5 | 15 | 272 | 1014.5 | 7.2 |
| 31-08-2026 18:00 | 23.6 | 23.2 | 11.9 | 48 | W | 5 | 17 | 263 | 1014.4 | 7.2 |
| 31-08-2026 17:30 | 23.5 | 22.8 | 11.8 | 48 | W | 7 | 17 | 269 | 1014.2 | 7.2 |
| 31-08-2026 17:00 | 23.3 | 23.2 | 12.2 | 50 | SW | 4 | 17 | 220 | 1014.5 | 7.2 |
| 31-08-2026 16:30 | 22 | 22.2 | 12.8 | 56 | W | 3 | 11 | 269 | 1014.9 | 7.2 |
| 31-08-2026 16:00 | 22.5 | 22.5 | 12.5 | 53 | WSW | 4 | 13 | 249 | 1014.9 | 7.2 |
| 31-08-2026 15:30 | 21.4 | 21.3 | 12.2 | 56 | SW | 4 | 13 | 230 | 1015.4 | 7.2 |
| 31-08-2026 15:00 | 21.6 | 21.7 | 12.4 | 56 | W | 3 | 11 | 271 | 1015.4 | 7.2 |
| 31-08-2026 14:30 | 22 | 21.9 | 12.6 | 55 | W | 5 | 15 | 269 | 1015.4 | 7.2 |
| 31-08-2026 14:00 | 21 | 20.7 | 12.7 | 59 | WSW | 6 | 18 | 248 | 1015.5 | 7.2 |
| 31-08-2026 13:30 | 20.1 | 20.3 | 13.2 | 64 | W | 4 | 13 | 267 | 1015.8 | 7.2 |
| 31-08-2026 13:00 | 20.8 | 20.8 | 13.5 | 63 | W | 6 | 18 | 271 | 1015.5 | 7.2 |
| 31-08-2026 12:30 | 20.4 | 20.5 | 14 | 67 | W | 6 | 13 | 265 | 1015.6 | 7.2 |
| 31-08-2026 12:00 | 20.2 | 20.4 | 14.3 | 69 | WSW | 6 | 13 | 255 | 1015.8 | 7.2 |
| 31-08-2026 11:30 | 19.7 | 20.7 | 14.9 | 74 | WNW | 3 | 13 | 286 | 1015.7 | 7.2 |
| 31-08-2026 11:00 | 19.5 | 19.8 | 14.9 | 75 | WSW | 6 | 18 | 248 | 1015.7 | 7.2 |
| 31-08-2026 10:30 | 18.6 | 19.2 | 15.6 | 83 | W | 6 | 18 | 265 | 1015.8 | 7.2 |
| 31-08-2026 10:00 | 17.4 | 18.1 | 15.6 | 89 | W | 5 | 15 | 260 | 1015.7 | 7.2 |
| 31-08-2026 09:30 | 16.7 | 17.8 | 15.7 | 94 | W | 4 | 13 | 273 | 1015.7 | 7.2 |
| 31-08-2026 09:00 | 16.1 | 17.6 | 15.2 | 94 | W | 1 | 5 | 268 | 1015.5 | 6.9 |
| 31-08-2026 08:30 | 16 | 17.3 | 15 | 94 | SW | 1 | 7 | 229 | 1015.2 | 6.9 |
| 31-08-2026 08:00 | 15.8 | 17.2 | 14.8 | 94 | SW | 0 | 4 | 218 | 1015 | 6.9 |
| 31-08-2026 07:30 | 15.4 | 16.8 | 14.4 | 94 | SSW | 0 | 2 | 210 | 1015.1 | 6.9 |
| 31-08-2026 07:00 | 15.3 | 16.6 | 14.3 | 94 | SSW | 1 | 4 | 195 | 1014.8 | 6.9 |
| 31-08-2026 06:30 | 15.4 | 16.8 | 14.4 | 94 | S | 0 | 2 | 187 | 1014.7 | 6.1 |
| 31-08-2026 06:00 | 15.5 | 16.9 | 14.5 | 94 | WSW | 0 | 5 | 241 | 1015 | 5.6 |
| 31-08-2026 05:30 | 13.2 | 13.1 | 12.2 | 94 | WSW | 4 | 17 | 249 | 1015 | 0.3 |
| 31-08-2026 05:00 | 12.6 | 13.1 | 11.7 | 94 | CALM | 0 | 0 | 0 | 1014 | 0 |
| 31-08-2026 04:30 | 12.9 | 13.5 | 11.9 | 94 | CALM | 0 | 0 | 0 | 1014.3 | 0 |
| 31-08-2026 04:00 | 12.1 | 12.5 | 11.2 | 94 | CALM | 0 | 0 | 0 | 1014.5 | 0 |
| 31-08-2026 03:30 | 12 | 12.3 | 11.1 | 94 | CALM | 0 | 0 | 0 | 1015 | 0 |
| 31-08-2026 03:00 | 11.9 | 12.2 | 11 | 94 | CALM | 0 | 0 | 0 | 1015.6 | 0 |
| 31-08-2026 02:30 | 12.2 | 12.6 | 11.3 | 94 | CALM | 0 | 0 | 0 | 1015.6 | 0 |
| 31-08-2026 02:00 | 12.4 | 12.9 | 11.5 | 94 | CALM | 0 | 0 | 0 | 1015.6 | 0 |
| 31-08-2026 01:30 | 12.8 | 13.4 | 11.7 | 93 | CALM | 0 | 0 | 0 | 1015.7 | 0 |
| 31-08-2026 01:00 | 13.2 | 13.8 | 12.1 | 93 | CALM | 0 | 0 | 0 | 1015.8 | 0 |
| 31-08-2026 00:30 | 13.6 | 14.3 | 12.3 | 92 | CALM | 0 | 0 | 0 | 1015.8 | 0 |
| 31-08-2026 00:00 | 14 | 14.8 | 12.6 | 91 | CALM | 0 | 0 | 0 | 1015.7 | 0 |
Time taken to generate page was 0.05 seconds.
This extension is available at github as weewx-wxobs : This is version 0.7.8